createdAt,value
2023-04-19T00:02:01.796Z,42.28
2023-04-19T00:04:30.636Z,41.70
2023-04-19T00:06:59.007Z,42.47
2023-04-19T00:09:27.486Z,45.03
2023-04-19T00:11:57.114Z,42.95
2023-04-19T00:14:25.687Z,43.78
2023-04-19T00:16:55.941Z,43.22
2023-04-19T00:19:24.329Z,43.35
2023-04-19T00:21:52.550Z,43.92
2023-04-19T00:24:20.915Z,44.47
2023-04-19T00:26:49.561Z,44.13
2023-04-19T00:29:19.060Z,44.92
2023-04-19T00:31:47.234Z,44.65
2023-04-19T00:34:15.872Z,41.63
2023-04-19T00:36:44.323Z,44.17
2023-04-19T00:39:13.232Z,44.25
2023-04-19T00:41:41.722Z,44.00
2023-04-19T00:44:09.968Z,45.72
2023-04-19T00:46:40.437Z,46.97
2023-04-19T00:49:08.973Z,43.78
2023-04-19T00:51:37.854Z,47.25
2023-04-19T00:54:07.688Z,46.85
2023-04-19T00:56:36.582Z,47.80
2023-04-19T00:59:04.853Z,46.45
2023-04-19T01:01:34.036Z,51.05
2023-04-19T01:04:04.449Z,46.90
2023-04-19T01:06:33.097Z,45.88
2023-04-19T01:09:01.581Z,51.78
2023-04-19T01:11:30.274Z,47.33
2023-04-19T01:13:58.717Z,48.03
2023-04-19T01:16:28.060Z,45.28
2023-04-19T01:18:56.507Z,48.50
2023-04-19T01:21:26.528Z,44.42
2023-04-19T01:23:56.136Z,47.78
2023-04-19T01:26:26.686Z,47.25
2023-04-19T01:28:54.830Z,50.30
2023-04-19T01:31:23.310Z,47.92
2023-04-19T01:33:51.841Z,48.58
2023-04-19T01:36:19.940Z,48.35
2023-04-19T01:38:48.640Z,47.17
2023-04-19T01:41:18.512Z,50.53
2023-04-19T01:43:46.622Z,44.70
2023-04-19T01:46:15.154Z,47.22
2023-04-19T01:48:43.683Z,48.22
2023-04-19T01:51:11.913Z,47.92
2023-04-19T01:53:40.219Z,48.70
2023-04-19T01:56:09.139Z,49.47
2023-04-19T01:58:38.709Z,48.97
2023-04-19T02:01:07.175Z,52.13
2023-04-19T02:03:35.570Z,50.42
2023-04-19T02:06:03.939Z,49.30
2023-04-19T02:08:32.290Z,48.38
2023-04-19T02:11:00.523Z,50.53
2023-04-19T02:13:28.641Z,49.50
2023-04-19T02:15:58.374Z,51.45
2023-04-19T02:18:26.973Z,51.83
2023-04-19T02:20:55.053Z,50.83
2023-04-19T02:23:23.527Z,48.08
2023-04-19T02:25:52.171Z,49.83
2023-04-19T02:28:20.722Z,51.17
2023-04-19T02:30:49.068Z,49.45
2023-04-19T02:33:18.810Z,48.85
2023-04-19T02:35:47.519Z,49.00
2023-04-19T02:38:15.724Z,50.95
2023-04-19T02:40:44.192Z,50.65
2023-04-19T02:43:12.528Z,51.20
2023-04-19T02:45:41.076Z,50.20
2023-04-19T02:48:09.312Z,51.05
2023-04-19T02:50:40.039Z,51.67
2023-04-19T02:53:08.257Z,54.45
2023-04-19T02:55:36.467Z,50.53
2023-04-19T02:58:04.800Z,51.83
2023-04-19T03:00:33.134Z,54.95
2023-04-19T03:03:04.240Z,52.03
2023-04-19T03:05:32.754Z,49.47
2023-04-19T03:08:02.351Z,47.15
2023-04-19T03:10:30.835Z,46.97
2023-04-19T03:12:59.198Z,50.33
2023-04-19T03:15:27.373Z,49.40
2023-04-19T03:17:55.743Z,51.83
2023-04-19T03:20:24.091Z,52.72
2023-04-19T03:22:52.281Z,51.42
2023-04-19T03:25:22.264Z,52.72
2023-04-19T03:27:51.745Z,53.42
2023-04-19T03:30:20.120Z,50.65
2023-04-19T03:32:49.197Z,53.03
2023-04-19T03:35:17.731Z,53.03
2023-04-19T03:37:46.072Z,51.75
2023-04-19T03:40:14.734Z,50.67
2023-04-19T03:42:44.269Z,51.92
2023-04-19T03:45:13.084Z,54.53
2023-04-19T03:47:41.652Z,57.17
2023-04-19T03:50:10.737Z,52.17
2023-04-19T03:52:39.170Z,52.38
2023-04-19T03:55:08.389Z,49.30
2023-04-19T03:57:36.541Z,54.70
2023-04-19T04:00:08.398Z,54.20
2023-04-19T04:02:39.743Z,53.47
2023-04-19T04:05:09.137Z,51.25
2023-04-19T04:07:37.314Z,52.47
2023-04-19T04:10:06.283Z,49.38
2023-04-19T04:12:34.735Z,51.97
2023-04-19T04:15:03.084Z,50.38
2023-04-19T04:17:33.483Z,50.35
2023-04-19T04:20:02.128Z,53.17
2023-04-19T04:22:30.751Z,52.58
2023-04-19T04:24:59.572Z,48.85
2023-04-19T04:27:27.904Z,50.55
2023-04-19T04:29:56.790Z,53.53
2023-04-19T04:32:25.337Z,52.22
2023-04-19T04:34:54.881Z,50.88
2023-04-19T04:37:23.097Z,51.90
2023-04-19T04:39:51.632Z,50.53
2023-04-19T04:42:21.619Z,50.60
2023-04-19T04:44:51.060Z,51.35
2023-04-19T04:47:19.910Z,56.58
2023-04-19T04:49:48.117Z,54.22
2023-04-19T04:52:18.568Z,66.22
2023-04-19T04:54:47.212Z,53.97
2023-04-19T04:57:15.952Z,51.03
2023-04-19T04:59:44.163Z,52.17
2023-04-19T05:02:12.612Z,50.53
2023-04-19T05:04:40.897Z,50.45
2023-04-19T05:07:09.078Z,47.40
2023-04-19T05:09:38.828Z,48.17
2023-04-19T05:12:07.810Z,51.42
2023-04-19T05:14:35.948Z,50.50
2023-04-19T05:17:06.992Z,50.03
2023-04-19T05:19:35.732Z,48.20
2023-04-19T05:22:03.905Z,51.33
2023-04-19T05:24:32.147Z,49.13
2023-04-19T05:27:02.253Z,53.38
2023-04-19T05:29:30.497Z,51.08
2023-04-19T05:31:59.512Z,51.65
2023-04-19T05:34:27.870Z,50.50
2023-04-19T05:36:56.106Z,47.88
2023-04-19T05:39:24.500Z,49.65
2023-04-19T05:41:52.720Z,44.28
2023-04-19T05:44:22.239Z,44.85
2023-04-19T05:46:50.495Z,46.35
2023-04-19T05:49:18.811Z,43.60
2023-04-19T05:51:47.172Z,43.70
2023-04-19T05:54:16.087Z,42.67
2023-04-19T05:56:44.669Z,41.95
2023-04-19T05:59:14.219Z,39.47
2023-04-19T06:01:44.052Z,35.80
2023-04-19T06:04:12.494Z,40.50
2023-04-19T06:06:40.975Z,38.90
2023-04-19T06:09:09.153Z,37.55
2023-04-19T06:11:46.994Z,39.05
2023-04-19T06:14:18.487Z,36.40
2023-04-19T06:16:48.488Z,42.88
2023-04-19T06:19:16.588Z,37.03
2023-04-19T06:21:45.437Z,38.85
2023-04-19T06:24:13.653Z,35.90
2023-04-19T06:26:41.922Z,36.30
2023-04-19T06:29:10.483Z,35.50
2023-04-19T06:31:38.991Z,36.55
2023-04-19T06:34:08.701Z,34.92
2023-04-19T06:36:39.270Z,32.97
2023-04-19T06:39:07.558Z,33.78
2023-04-19T06:41:35.719Z,35.38
2023-04-19T06:44:04.465Z,32.90
2023-04-19T06:46:32.731Z,32.85
2023-04-19T06:49:00.930Z,31.77
2023-04-19T06:51:31.022Z,30.67
2023-04-19T06:53:59.196Z,32.38
2023-04-19T06:56:45.916Z,30.30
2023-04-19T06:59:14.910Z,29.73
2023-04-19T07:01:43.545Z,30.08
2023-04-19T07:04:12.099Z,31.05
2023-04-19T07:06:42.064Z,30.45
2023-04-19T07:09:10.571Z,29.80
2023-04-19T07:11:39.010Z,27.08
2023-04-19T07:14:07.280Z,26.48
2023-04-19T07:16:35.856Z,28.17
2023-04-19T07:19:04.613Z,28.55
2023-04-19T07:21:33.584Z,26.67
2023-04-19T07:24:03.296Z,25.20
2023-04-19T07:26:31.824Z,24.40
2023-04-19T07:29:00.472Z,28.05
2023-04-19T07:31:29.326Z,27.15
2023-04-19T07:33:57.659Z,23.77
2023-04-19T07:36:26.106Z,27.67
2023-04-19T07:38:54.738Z,24.88
2023-04-19T07:41:25.087Z,27.02
2023-04-19T07:43:53.489Z,24.73
2023-04-19T07:46:21.829Z,23.73
2023-04-19T07:48:50.534Z,23.67
2023-04-19T07:51:19.408Z,24.38
2023-04-19T07:53:48.242Z,24.52
2023-04-19T07:56:17.073Z,25.30
2023-04-19T07:58:56.436Z,24.40
2023-04-19T08:01:33.189Z,22.95
2023-04-19T08:04:01.791Z,23.85
2023-04-19T08:06:30.864Z,21.15
2023-04-19T08:08:59.430Z,21.77
2023-04-19T08:11:27.811Z,23.45
2023-04-19T08:17:09.054Z,21.38
2023-04-19T08:19:18.197Z,21.05
2023-04-19T08:21:46.625Z,21.23
2023-04-19T08:24:14.910Z,20.63
2023-04-19T08:26:43.527Z,20.92
2023-04-19T08:29:13.518Z,22.50
2023-04-19T08:31:45.746Z,22.33
2023-04-19T08:34:19.869Z,22.25
2023-04-19T08:37:00.083Z,21.42
2023-04-19T08:42:11.018Z,23.65
2023-04-19T08:47:44.932Z,20.92
2023-04-19T08:50:32.496Z,20.95
2023-04-19T08:55:36.030Z,21.67
2023-04-19T08:58:09.642Z,21.20
2023-04-19T09:00:42.898Z,21.45
2023-04-19T09:03:11.555Z,20.42
2023-04-19T09:05:40.055Z,21.63
2023-04-19T09:08:26.708Z,21.77
2023-04-19T09:10:56.785Z,21.95
2023-04-19T09:32:49.692Z,22.83
2023-04-19T09:35:18.304Z,22.73
2023-04-19T09:40:31.622Z,24.02
2023-04-19T09:43:13.022Z,22.85
2023-04-19T09:45:48.242Z,20.70
2023-04-19T09:48:18.252Z,22.10
2023-04-19T09:50:59.737Z,21.45
2023-04-19T09:53:34.413Z,21.45
2023-04-19T09:56:05.506Z,19.88
2023-04-19T09:58:48.880Z,21.27
2023-04-19T10:01:22.308Z,20.33
2023-04-19T10:03:53.451Z,20.45
2023-04-19T10:06:45.978Z,24.30
2023-04-19T10:09:15.936Z,21.00
2023-04-19T10:11:51.320Z,18.45
2023-04-19T10:14:25.381Z,18.83
2023-04-19T10:16:54.039Z,16.83
2023-04-19T10:19:24.826Z,15.82
2023-04-19T10:21:53.651Z,17.10
2023-04-19T10:24:23.924Z,17.63
2023-04-19T10:27:11.139Z,17.05
2023-04-19T10:30:00.610Z,15.43
2023-04-19T10:32:30.660Z,17.58
2023-04-19T10:35:08.787Z,17.88
2023-04-19T10:37:41.991Z,15.85
2023-04-19T10:40:12.973Z,14.77
2023-04-19T10:43:18.319Z,15.90
2023-04-19T10:45:48.181Z,16.38
2023-04-19T10:48:38.204Z,14.05
2023-04-19T10:51:15.622Z,14.30
2023-04-19T10:53:55.151Z,14.38
2023-04-19T10:56:41.356Z,13.02
2023-04-19T10:59:27.699Z,13.90
2023-04-19T11:01:57.959Z,14.07
2023-04-19T11:05:01.892Z,14.32
2023-04-19T11:07:42.106Z,14.03
2023-04-19T11:10:11.759Z,12.82
2023-04-19T11:12:44.109Z,12.35
2023-04-19T11:15:12.504Z,11.88
2023-04-19T11:17:42.592Z,11.52
2023-04-19T11:20:12.694Z,12.57
2023-04-19T11:22:43.481Z,12.15
2023-04-19T11:25:14.014Z,12.73
2023-04-19T11:27:44.113Z,12.52
2023-04-19T11:30:14.988Z,11.38
2023-04-19T11:32:47.584Z,14.15
2023-04-19T11:35:16.759Z,10.87
2023-04-19T11:37:46.955Z,11.90
2023-04-19T11:40:17.742Z,11.88
2023-04-19T11:42:46.340Z,11.32
2023-04-19T11:45:29.789Z,11.70
2023-04-19T11:48:00.102Z,11.27
2023-04-19T11:50:39.316Z,11.35
2023-04-19T11:53:17.416Z,10.82
2023-04-19T11:55:47.548Z,9.85
2023-04-19T11:58:26.793Z,11.05
2023-04-19T12:00:55.926Z,11.50
2023-04-19T12:03:26.440Z,11.23
2023-04-19T12:06:00.136Z,11.93
2023-04-19T12:08:34.626Z,14.75
2023-04-19T12:11:04.673Z,12.55
2023-04-19T12:13:33.575Z,12.30
2023-04-19T12:16:02.747Z,11.77
2023-04-19T12:18:45.475Z,11.73
2023-04-19T12:21:25.844Z,10.93
2023-04-19T12:23:57.811Z,10.50
2023-04-19T12:26:26.577Z,11.55
2023-04-19T12:28:55.974Z,12.48
2023-04-19T12:31:24.826Z,12.43
2023-04-19T12:33:53.075Z,12.98
2023-04-19T12:36:22.486Z,13.23
2023-04-19T12:38:50.901Z,13.38
2023-04-19T12:41:21.230Z,12.85
2023-04-19T12:43:49.870Z,13.48
2023-04-19T12:46:18.444Z,14.55
2023-04-19T12:48:47.131Z,13.73
2023-04-19T12:51:15.401Z,13.95
2023-04-19T12:53:49.012Z,14.38
2023-04-19T12:58:46.958Z,16.23
2023-04-19T13:01:15.434Z,14.23
2023-04-19T13:03:43.965Z,14.45
2023-04-19T13:06:13.625Z,14.07
2023-04-19T13:08:46.235Z,13.43
2023-04-19T13:11:17.953Z,11.13
2023-04-19T13:13:47.588Z,12.18
2023-04-19T13:16:15.998Z,14.65
2023-04-19T13:18:46.998Z,14.05
2023-04-19T13:21:15.378Z,14.48
2023-04-19T13:23:45.471Z,11.43
2023-04-19T13:26:13.810Z,12.48
2023-04-19T13:28:43.572Z,9.95
2023-04-19T13:31:13.275Z,9.75
2023-04-19T13:33:41.619Z,9.57
2023-04-19T13:36:09.980Z,12.38
2023-04-19T13:38:38.534Z,9.23
2023-04-19T13:41:07.178Z,10.40
2023-04-19T13:43:35.389Z,10.60
2023-04-19T13:46:03.731Z,9.80
2023-04-19T13:48:33.444Z,11.68
2023-04-19T13:51:01.671Z,9.18
2023-04-19T13:53:30.491Z,9.88
2023-04-19T13:55:58.845Z,10.98
2023-04-19T13:58:27.136Z,8.77
2023-04-19T14:00:55.650Z,10.38
2023-04-19T14:03:24.684Z,9.60
2023-04-19T14:05:54.741Z,9.98
2023-04-19T14:08:23.024Z,9.68
2023-04-19T14:10:51.805Z,9.27
2023-04-19T14:13:19.981Z,8.77
2023-04-19T14:15:48.440Z,9.48
2023-04-19T14:18:17.244Z,9.10
2023-04-19T14:20:45.696Z,9.52
2023-04-19T14:23:15.419Z,9.88
2023-04-19T14:25:43.852Z,9.43
2023-04-19T14:28:12.948Z,9.85
2023-04-19T14:30:41.411Z,7.07
2023-04-19T14:33:09.794Z,8.95
2023-04-19T14:35:38.107Z,7.55
2023-04-19T14:38:06.458Z,8.15
2023-04-19T14:40:36.653Z,10.43
2023-04-19T14:43:05.068Z,8.85
2023-04-19T14:45:33.229Z,8.98
2023-04-19T14:48:01.873Z,9.88
2023-04-19T14:50:30.104Z,7.18
2023-04-19T14:52:58.425Z,9.90
2023-04-19T14:55:27.703Z,7.97
2023-04-19T14:57:57.253Z,6.32
2023-04-19T15:00:25.987Z,7.10
2023-04-19T15:02:54.775Z,8.23
2023-04-19T15:05:25.005Z,8.73
2023-04-19T15:07:53.781Z,5.95
2023-04-19T15:10:22.580Z,7.18
2023-04-19T15:12:50.812Z,8.27
2023-04-19T15:15:20.663Z,7.15
2023-04-19T15:17:48.913Z,5.72
2023-04-19T15:20:17.369Z,5.97
2023-04-19T15:22:45.783Z,6.80
2023-04-19T15:25:14.183Z,7.38
2023-04-19T15:27:42.382Z,5.50
2023-04-19T15:30:12.429Z,8.05
2023-04-19T15:32:44.560Z,5.82
2023-04-19T15:35:13.394Z,5.85
2023-04-19T15:37:43.245Z,7.65
2023-04-19T15:40:14.273Z,6.30
2023-04-19T15:42:42.709Z,5.22
2023-04-19T15:45:11.552Z,6.13
2023-04-19T15:47:41.196Z,5.57
2023-04-19T15:50:09.877Z,6.22
2023-04-19T15:52:38.348Z,6.78
2023-04-19T15:55:07.060Z,6.93
2023-04-19T15:57:35.369Z,6.78
2023-04-19T16:00:03.604Z,7.90
2023-04-19T16:02:32.123Z,6.43
2023-04-19T16:05:02.312Z,5.53
2023-04-19T16:07:30.640Z,6.82
2023-04-19T16:09:58.803Z,7.43
2023-04-19T16:12:27.906Z,6.15
2023-04-19T16:14:56.352Z,6.13
2023-04-19T16:17:24.913Z,5.65
2023-04-19T16:19:53.160Z,5.20
2023-04-19T16:22:22.901Z,4.50
2023-04-19T16:24:51.432Z,7.45
2023-04-19T16:27:19.761Z,4.72
2023-04-19T16:29:48.063Z,8.23
2023-04-19T16:32:16.358Z,9.68
2023-04-19T16:34:46.636Z,6.80
2023-04-19T16:37:16.163Z,5.63
2023-04-19T16:39:45.876Z,4.93
2023-04-19T16:42:14.174Z,5.90
2023-04-19T16:44:42.482Z,5.32
2023-04-19T16:47:11.059Z,7.07
2023-04-19T16:49:39.291Z,6.13
2023-04-19T16:52:07.729Z,6.28
2023-04-19T16:54:36.072Z,8.30
2023-04-19T16:57:06.640Z,6.18
2023-04-19T16:59:34.933Z,7.18
2023-04-19T17:02:03.263Z,6.15
2023-04-19T17:04:32.535Z,7.90
2023-04-19T17:07:01.110Z,6.43
2023-04-19T17:09:29.788Z,7.03
2023-04-19T17:11:58.386Z,8.63
2023-04-19T17:14:28.029Z,7.80
2023-04-19T17:16:56.796Z,5.82
2023-04-19T17:19:25.057Z,6.55
2023-04-19T17:21:53.538Z,5.88
2023-04-19T17:24:21.898Z,6.35
2023-04-19T17:26:50.561Z,5.30
2023-04-19T17:29:19.389Z,6.60
2023-04-19T17:31:49.216Z,8.23
2023-04-19T17:34:18.510Z,6.63
2023-04-19T17:36:46.779Z,6.57
2023-04-19T17:39:15.340Z,6.03
2023-04-19T17:41:44.736Z,5.43
2023-04-19T17:44:13.413Z,6.88
2023-04-19T17:46:41.846Z,7.63
2023-04-19T17:49:12.851Z,6.88
2023-04-19T17:51:41.026Z,6.93
2023-04-19T17:54:09.324Z,6.38
2023-04-19T17:56:37.569Z,7.90
2023-04-19T17:59:05.711Z,7.18
2023-04-19T18:01:35.266Z,6.95
2023-04-19T18:04:04.399Z,8.20
2023-04-19T18:06:34.201Z,7.80
2023-04-19T18:09:02.577Z,7.85
2023-04-19T18:11:30.811Z,9.48
2023-04-19T18:13:58.951Z,6.10
2023-04-19T18:16:27.489Z,8.07
2023-04-19T18:18:55.953Z,9.88
2023-04-19T18:21:24.130Z,8.43
2023-04-19T18:23:54.826Z,6.97
2023-04-19T18:26:22.960Z,8.15
2023-04-19T18:28:51.167Z,7.57
2023-04-19T18:31:19.539Z,9.07
2023-04-19T18:33:48.072Z,8.57
2023-04-19T18:36:16.376Z,7.38
2023-04-19T18:38:44.825Z,7.75
2023-04-19T18:41:14.401Z,14.32
2023-04-19T18:43:50.696Z,10.25
2023-04-19T18:46:31.118Z,9.93
2023-04-19T18:48:59.402Z,7.55
2023-04-19T18:51:28.791Z,8.40
2023-04-19T18:53:57.341Z,10.35
2023-04-19T18:57:04.421Z,8.90
2023-04-19T18:59:16.170Z,9.38
2023-04-19T19:01:45.417Z,8.30
2023-04-19T19:04:34.007Z,11.25
2023-04-19T19:07:18.124Z,7.97
2023-04-19T19:09:56.548Z,9.65
2023-04-19T19:12:26.976Z,8.70
2023-04-19T19:14:55.348Z,11.55
2023-04-19T19:17:24.585Z,10.80
2023-04-19T19:19:55.019Z,8.38
2023-04-19T19:22:28.410Z,7.55
2023-04-19T19:24:57.712Z,10.85
2023-04-19T19:27:27.310Z,11.27
2023-04-19T19:29:55.867Z,8.13
2023-04-19T19:32:24.153Z,13.55
2023-04-19T19:34:56.404Z,8.40
2023-04-19T19:37:29.812Z,9.18
2023-04-19T19:40:03.696Z,8.50
2023-04-19T19:42:34.413Z,10.18
2023-04-19T19:45:03.856Z,10.88
2023-04-19T19:47:35.317Z,9.93
2023-04-19T19:50:50.588Z,10.00
2023-04-19T19:52:53.791Z,10.20
2023-04-19T19:55:22.348Z,10.10
2023-04-19T20:00:41.876Z,11.23
2023-04-19T20:03:14.201Z,9.20
2023-04-19T20:05:43.729Z,11.55
2023-04-19T20:08:13.686Z,9.07
2023-04-19T20:10:43.866Z,10.05
2023-04-19T20:13:14.275Z,11.50
2023-04-19T20:15:45.502Z,9.30
2023-04-19T20:18:14.617Z,10.45
2023-04-19T20:20:42.853Z,9.38
2023-04-19T20:23:11.520Z,9.45
2023-04-19T20:25:40.074Z,10.52
2023-04-19T20:28:09.642Z,11.65
2023-04-19T20:30:39.344Z,10.13
2023-04-19T20:33:07.749Z,9.70
2023-04-19T20:35:36.638Z,9.25
2023-04-19T20:38:07.857Z,9.68
2023-04-19T20:40:36.223Z,8.43
2023-04-19T20:43:04.429Z,8.93
2023-04-19T20:45:33.087Z,9.32
2023-04-19T20:48:03.255Z,9.85
2023-04-19T20:50:31.665Z,8.82
2023-04-19T20:53:00.331Z,11.07
2023-04-19T20:55:28.768Z,8.25
2023-04-19T20:57:56.914Z,10.85
2023-04-19T21:00:25.552Z,10.40
2023-04-19T21:02:54.069Z,11.45
2023-04-19T21:05:24.018Z,10.55
2023-04-19T21:07:52.370Z,8.40
2023-04-19T21:10:22.058Z,9.82
2023-04-19T21:12:50.352Z,9.68
2023-04-19T21:15:18.766Z,9.77
2023-04-19T21:17:47.086Z,9.65
2023-04-19T21:20:18.015Z,9.55
2023-04-19T21:22:48.733Z,8.27
2023-04-19T21:25:17.247Z,9.07
2023-04-19T21:27:45.542Z,8.13
2023-04-19T21:30:14.819Z,10.25
2023-04-19T21:32:43.102Z,8.80
2023-04-19T21:35:11.579Z,8.32
2023-04-19T21:37:39.914Z,9.60
2023-04-19T21:40:10.611Z,9.73
2023-04-19T21:42:38.883Z,10.43
2023-04-19T21:45:08.454Z,6.10
2023-04-19T21:47:36.827Z,6.65
2023-04-19T21:50:05.348Z,9.32
2023-04-19T21:52:33.692Z,7.13
2023-04-19T21:55:01.834Z,8.05
2023-04-19T21:57:31.364Z,7.82
2023-04-19T21:59:59.887Z,7.55
2023-04-19T22:02:28.149Z,7.13
2023-04-19T22:04:56.699Z,7.78
2023-04-19T22:07:25.013Z,8.20
2023-04-19T22:09:54.393Z,7.80
2023-04-19T22:12:23.482Z,6.55
2023-04-19T22:14:53.668Z,7.53
2023-04-19T22:17:21.899Z,6.85
2023-04-19T22:19:50.074Z,7.47
2023-04-19T22:22:18.394Z,6.90
2023-04-19T22:24:57.008Z,7.68
2023-04-19T22:27:26.230Z,7.10
2023-04-19T22:29:55.907Z,7.72
2023-04-19T22:32:24.183Z,6.47
2023-04-19T22:34:52.953Z,7.22
2023-04-19T22:37:21.131Z,7.50
2023-04-19T22:39:49.389Z,7.80
2023-04-19T22:42:18.077Z,6.38
2023-04-19T22:44:46.210Z,7.72
2023-04-19T22:47:16.507Z,6.68
2023-04-19T22:49:45.602Z,6.43
2023-04-19T22:52:14.523Z,7.43
2023-04-19T22:54:43.112Z,8.52
2023-04-19T22:57:12.077Z,7.90
2023-04-19T22:59:40.369Z,7.95
2023-04-19T23:02:08.711Z,9.05
2023-04-19T23:04:39.608Z,6.38
2023-04-19T23:07:08.326Z,8.70
2023-04-19T23:09:39.068Z,7.20
2023-04-19T23:12:08.416Z,8.05
2023-04-19T23:14:38.545Z,8.50
2023-04-19T23:17:07.891Z,11.07
2023-04-19T23:19:38.979Z,8.43
2023-04-19T23:22:07.177Z,7.93
2023-04-19T23:24:36.184Z,8.15
2023-04-19T23:27:04.755Z,7.50
2023-04-19T23:29:32.985Z,7.40
2023-04-19T23:32:02.184Z,6.38
2023-04-19T23:34:30.940Z,7.90
2023-04-19T23:37:00.985Z,7.28
2023-04-19T23:39:29.291Z,7.63
2023-04-19T23:41:58.153Z,8.77
2023-04-19T23:44:30.047Z,10.52
2023-04-19T23:46:58.468Z,7.10
2023-04-19T23:49:26.735Z,6.95
2023-04-19T23:51:54.926Z,8.95
2023-04-19T23:54:26.160Z,7.38
2023-04-19T23:56:55.416Z,6.45
2023-04-19T23:59:26.775Z,9.02
